createdAt,value
2017-12-21T00:02:07.891Z,25.50
2017-12-21T00:04:35.411Z,31.70
2017-12-21T00:07:03.756Z,28.50
2017-12-21T00:09:31.263Z,25.50
2017-12-21T00:11:58.767Z,27.33
2017-12-21T00:14:26.279Z,25.55
2017-12-21T00:16:54.545Z,27.48
2017-12-21T00:19:22.839Z,30.20
2017-12-21T00:21:50.349Z,29.60
2017-12-21T00:24:17.862Z,26.62
2017-12-21T00:26:45.372Z,26.60
2017-12-21T00:29:12.900Z,30.55
2017-12-21T00:31:40.402Z,28.02
2017-12-21T00:34:08.694Z,27.35
2017-12-21T00:36:36.961Z,24.52
2017-12-21T00:39:05.242Z,25.33
2017-12-21T00:41:33.515Z,28.75
2017-12-21T00:44:01.795Z,25.27
2017-12-21T00:46:30.070Z,27.25
2017-12-21T00:48:58.351Z,30.12
2017-12-21T00:51:26.675Z,29.25
2017-12-21T00:53:54.193Z,28.27
2017-12-21T00:56:22.490Z,27.20
2017-12-21T00:58:50.009Z,29.73
2017-12-21T01:01:18.292Z,29.77
2017-12-21T01:03:45.852Z,27.98
2017-12-21T01:06:13.357Z,28.80
2017-12-21T01:08:40.910Z,26.55
2017-12-21T01:11:08.420Z,25.27
2017-12-21T01:13:35.926Z,25.17
2017-12-21T01:16:03.447Z,23.25
2017-12-21T01:18:30.952Z,21.30
2017-12-21T01:20:58.471Z,21.75
2017-12-21T01:23:26.750Z,22.65
2017-12-21T01:25:54.278Z,20.10
2017-12-21T01:28:21.790Z,23.30
2017-12-21T01:30:49.299Z,23.27
2017-12-21T01:33:16.799Z,22.52
2017-12-21T01:35:45.083Z,20.88
2017-12-21T01:38:12.651Z,26.12
2017-12-21T01:40:40.134Z,20.00
2017-12-21T01:43:07.634Z,21.50
2017-12-21T01:45:35.171Z,24.15
2017-12-21T01:48:02.674Z,23.10
2017-12-21T01:50:30.954Z,21.95
2017-12-21T01:52:58.451Z,23.15
2017-12-21T01:55:25.974Z,21.62
2017-12-21T01:57:53.470Z,23.75
2017-12-21T02:00:20.982Z,26.45
2017-12-21T02:02:49.253Z,21.90
2017-12-21T02:05:17.551Z,28.52
2017-12-21T02:07:45.062Z,30.60
2017-12-21T02:10:12.566Z,26.12
2017-12-21T02:12:40.086Z,24.60
2017-12-21T02:15:07.586Z,25.98
2017-12-21T02:17:35.102Z,26.17
2017-12-21T02:20:02.606Z,29.85
2017-12-21T02:22:30.126Z,23.85
2017-12-21T02:24:57.622Z,24.30
2017-12-21T02:27:25.144Z,30.42
2017-12-21T02:29:52.642Z,25.58
2017-12-21T02:32:20.167Z,26.90
2017-12-21T02:34:47.662Z,24.80
2017-12-21T02:37:15.185Z,28.27
2017-12-21T02:39:42.684Z,28.00
2017-12-21T02:42:10.202Z,27.00
2017-12-21T02:44:37.705Z,30.17
2017-12-21T02:47:05.228Z,29.17
2017-12-21T02:49:33.498Z,30.23
2017-12-21T02:52:01.023Z,31.85
2017-12-21T02:54:28.530Z,27.80
2017-12-21T02:56:56.813Z,27.42
2017-12-21T02:59:24.310Z,31.30
2017-12-21T03:01:51.861Z,27.80
2017-12-21T03:04:19.375Z,26.67
2017-12-21T03:06:47.650Z,31.52
2017-12-21T03:09:15.939Z,33.03
2017-12-21T03:11:44.206Z,25.37
2017-12-21T03:14:12.489Z,26.20
2017-12-21T03:16:40.764Z,30.25
2017-12-21T03:19:09.051Z,27.60
2017-12-21T03:21:36.547Z,29.00
2017-12-21T03:24:04.066Z,26.60
2017-12-21T03:26:31.566Z,28.65
2017-12-21T03:28:59.083Z,26.48
2017-12-21T03:31:27.355Z,29.00
2017-12-21T03:33:55.643Z,28.83
2017-12-21T03:36:23.141Z,30.58
2017-12-21T03:38:50.653Z,25.25
2017-12-21T03:41:18.922Z,26.30
2017-12-21T03:43:47.207Z,21.70
2017-12-21T03:46:15.471Z,26.45
2017-12-21T03:48:43.762Z,27.37
2017-12-21T03:51:12.039Z,20.30
2017-12-21T03:53:40.324Z,24.00
2017-12-21T03:56:07.826Z,23.80
2017-12-21T03:58:35.371Z,32.15
2017-12-21T04:01:02.871Z,23.30
2017-12-21T04:03:30.370Z,23.45
2017-12-21T04:05:57.890Z,26.42
2017-12-21T04:08:25.389Z,22.50
2017-12-21T04:10:52.914Z,22.10
2017-12-21T04:13:20.427Z,26.87
2017-12-21T04:15:47.942Z,25.75
2017-12-21T04:18:16.214Z,22.40
2017-12-21T04:20:44.493Z,29.33
2017-12-21T04:23:12.755Z,25.90
2017-12-21T04:25:40.291Z,23.17
2017-12-21T04:28:07.789Z,25.00
2017-12-21T04:30:36.065Z,23.67
2017-12-21T04:33:04.335Z,26.00
2017-12-21T04:35:32.656Z,24.80
2017-12-21T04:38:00.147Z,25.42
2017-12-21T04:40:27.690Z,24.90
2017-12-21T04:42:55.266Z,23.50
2017-12-21T04:45:22.798Z,26.10
2017-12-21T04:47:50.306Z,24.95
2017-12-21T04:50:17.842Z,24.00
2017-12-21T04:52:45.355Z,23.08
2017-12-21T04:55:12.887Z,26.52
2017-12-21T04:57:41.174Z,22.45
2017-12-21T05:00:09.462Z,23.45
2017-12-21T05:02:37.736Z,23.45
2017-12-21T05:05:05.287Z,26.05
2017-12-21T05:07:33.557Z,24.55
2017-12-21T05:10:01.836Z,25.65
2017-12-21T05:12:30.140Z,25.25
2017-12-21T05:14:57.643Z,23.67
2017-12-21T05:17:25.161Z,23.67
2017-12-21T05:19:52.677Z,26.75
2017-12-21T05:22:20.190Z,23.83
2017-12-21T05:24:47.706Z,26.42
2017-12-21T05:27:16.225Z,22.10
2017-12-21T05:29:43.756Z,22.62
2017-12-21T05:32:11.282Z,22.23
2017-12-21T05:34:38.794Z,25.75
2017-12-21T05:37:06.314Z,22.87
2017-12-21T05:39:33.814Z,24.52
2017-12-21T05:42:01.355Z,23.00
2017-12-21T05:44:29.634Z,23.62
2017-12-21T05:46:57.915Z,23.80
2017-12-21T05:49:25.414Z,22.73
2017-12-21T05:51:52.927Z,23.08
2017-12-21T05:54:21.199Z,22.62
2017-12-21T05:56:49.531Z,23.38
2017-12-21T05:59:18.046Z,26.62
2017-12-21T06:01:45.550Z,22.15
2017-12-21T06:04:13.067Z,25.10
2017-12-21T06:06:41.343Z,25.77
2017-12-21T06:09:08.866Z,22.65
2017-12-21T06:11:36.366Z,25.25
2017-12-21T06:14:04.644Z,23.25
2017-12-21T06:16:32.929Z,20.33
2017-12-21T06:19:00.455Z,25.83
2017-12-21T06:21:27.954Z,20.95
2017-12-21T06:23:55.486Z,26.52
2017-12-21T06:26:23.003Z,23.75
2017-12-21T06:28:50.519Z,26.62
2017-12-21T06:31:18.870Z,21.87
2017-12-21T06:33:46.383Z,21.85
2017-12-21T06:36:13.882Z,24.70
2017-12-21T06:38:41.398Z,20.23
2017-12-21T06:41:08.903Z,22.50
2017-12-21T06:43:36.413Z,19.90
2017-12-21T06:46:03.918Z,23.80
2017-12-21T06:48:31.447Z,17.45
2017-12-21T06:50:58.942Z,19.30
2017-12-21T06:53:26.472Z,21.58
2017-12-21T06:55:53.987Z,20.37
2017-12-21T06:58:22.324Z,16.15
2017-12-21T07:00:49.834Z,16.80
2017-12-21T07:03:18.103Z,16.90
2017-12-21T07:05:46.445Z,15.95
2017-12-21T07:08:18.154Z,16.35
2017-12-21T07:10:45.685Z,14.50
2017-12-21T07:13:13.187Z,17.92
2017-12-21T07:15:40.697Z,16.55
2017-12-21T07:18:08.243Z,15.07
2017-12-21T07:20:36.587Z,16.45
2017-12-21T07:23:04.090Z,19.27
2017-12-21T07:25:31.606Z,16.95
2017-12-21T07:27:59.102Z,17.48
2017-12-21T07:30:26.888Z,14.48
2017-12-21T07:32:55.153Z,14.18
2017-12-21T07:35:22.671Z,13.27
2017-12-21T07:37:50.403Z,15.50
2017-12-21T07:40:18.685Z,14.30
2017-12-21T07:42:46.951Z,17.92
2017-12-21T07:45:15.233Z,12.25
2017-12-21T07:47:43.492Z,16.90
2017-12-21T07:50:11.009Z,12.30
2017-12-21T07:52:38.507Z,12.70
2017-12-21T07:55:06.007Z,10.77
2017-12-21T07:57:33.538Z,13.23
2017-12-21T08:00:01.118Z,11.65
2017-12-21T08:02:28.633Z,12.48
2017-12-21T08:04:56.143Z,12.20
2017-12-21T08:07:23.727Z,11.93
2017-12-21T08:09:51.234Z,10.90
2017-12-21T08:12:19.516Z,12.05
2017-12-21T08:14:47.786Z,10.27
2017-12-21T08:17:15.315Z,11.05
2017-12-21T08:19:42.805Z,9.93
2017-12-21T08:22:11.090Z,9.30
2017-12-21T08:24:38.602Z,9.60
2017-12-21T08:27:06.110Z,8.52
2017-12-21T08:29:33.614Z,7.57
2017-12-21T08:32:01.137Z,10.10
2017-12-21T08:34:29.398Z,6.57
2017-12-21T08:36:57.702Z,7.12
2017-12-21T08:39:25.954Z,7.70
2017-12-21T08:41:54.231Z,13.15
2017-12-21T08:44:22.513Z,6.57
2017-12-21T08:46:50.790Z,8.43
2017-12-21T08:49:19.051Z,7.90
2017-12-21T08:51:46.584Z,8.00
2017-12-21T08:54:14.135Z,9.80
2017-12-21T08:56:41.674Z,5.53
2017-12-21T08:59:09.254Z,6.00
2017-12-21T09:01:36.757Z,6.07
2017-12-21T09:04:04.279Z,4.47
2017-12-21T09:06:31.775Z,5.28
2017-12-21T09:09:00.057Z,7.20
2017-12-21T09:11:28.324Z,5.90
2017-12-21T09:13:55.836Z,5.28
2017-12-21T09:16:23.335Z,5.43
2017-12-21T09:18:50.875Z,4.80
2017-12-21T09:21:18.376Z,5.25
2017-12-21T09:23:45.963Z,5.45
2017-12-21T09:26:13.454Z,6.03
2017-12-21T09:28:40.975Z,3.70
2017-12-21T09:31:08.483Z,4.72
2017-12-21T09:33:36.019Z,9.48
2017-12-21T09:36:03.527Z,3.72
2017-12-21T09:38:31.806Z,4.62
2017-12-21T09:41:00.070Z,6.28
2017-12-21T09:43:27.583Z,4.85
2017-12-21T09:45:55.071Z,3.62
2017-12-21T09:48:22.594Z,3.50
2017-12-21T09:50:50.090Z,3.67
2017-12-21T09:53:18.371Z,4.68
2017-12-21T09:55:45.889Z,4.40
2017-12-21T09:58:13.386Z,3.17
2017-12-21T10:00:40.919Z,4.90
2017-12-21T10:03:08.431Z,4.87
2017-12-21T10:05:36.715Z,4.90
2017-12-21T10:08:04.988Z,3.83
2017-12-21T10:10:33.265Z,3.37
2017-12-21T10:13:02.327Z,3.75
2017-12-21T10:15:29.843Z,3.28
2017-12-21T10:17:57.356Z,4.30
2017-12-21T10:20:24.875Z,4.15
2017-12-21T10:22:52.371Z,3.55
2017-12-21T10:25:19.886Z,5.60
2017-12-21T10:27:47.429Z,5.20
2017-12-21T10:30:14.951Z,4.35
2017-12-21T10:32:42.453Z,4.57
2017-12-21T10:35:09.966Z,2.85
2017-12-21T10:37:37.504Z,3.72
2017-12-21T10:40:05.056Z,3.12
2017-12-21T10:42:32.532Z,3.12
2017-12-21T10:45:00.054Z,4.30
2017-12-21T10:47:27.554Z,3.37
2017-12-21T10:49:55.079Z,2.60
2017-12-21T10:52:22.678Z,3.35
2017-12-21T10:54:50.970Z,4.18
2017-12-21T10:57:19.254Z,4.45
2017-12-21T10:59:47.528Z,3.22
2017-12-21T11:02:16.054Z,3.50
2017-12-21T11:04:43.546Z,3.40
2017-12-21T11:07:11.061Z,2.67
2017-12-21T11:09:38.662Z,2.72
2017-12-21T11:12:06.172Z,2.67
2017-12-21T11:14:33.665Z,2.75
2017-12-21T11:17:01.174Z,3.12
2017-12-21T11:19:29.453Z,2.42
2017-12-21T11:21:57.778Z,2.67
2017-12-21T11:24:25.290Z,2.45
2017-12-21T11:26:52.818Z,2.47
2017-12-21T11:29:20.315Z,3.65
2017-12-21T11:31:47.830Z,3.92
2017-12-21T11:34:15.323Z,2.20
2017-12-21T11:36:43.611Z,2.12
2017-12-21T11:39:11.105Z,2.40
2017-12-21T11:41:38.614Z,3.15
2017-12-21T11:44:06.882Z,2.25
2017-12-21T11:46:34.390Z,2.80
2017-12-21T11:49:01.890Z,2.30
2017-12-21T11:51:29.383Z,2.60
2017-12-21T11:53:56.911Z,2.95
2017-12-21T11:56:24.414Z,1.98
2017-12-21T11:58:52.139Z,1.90
2017-12-21T12:01:20.417Z,2.67
2017-12-21T12:03:47.942Z,2.75
2017-12-21T12:06:15.433Z,3.17
2017-12-21T12:08:43.711Z,4.03
2017-12-21T12:11:11.970Z,2.92
2017-12-21T12:13:39.474Z,6.78
2017-12-21T12:16:06.976Z,2.47
2017-12-21T12:18:35.283Z,3.28
2017-12-21T12:21:03.551Z,2.78
2017-12-21T12:23:31.067Z,2.60
2017-12-21T12:25:58.574Z,3.00
2017-12-21T12:28:26.279Z,6.37
2017-12-21T12:30:53.825Z,3.45
2017-12-21T12:33:21.375Z,3.05
2017-12-21T12:35:49.642Z,3.62
2017-12-21T12:38:17.171Z,2.35
2017-12-21T12:40:44.672Z,2.62
2017-12-21T12:43:12.945Z,2.65
2017-12-21T12:45:41.219Z,5.65
2017-12-21T12:48:09.498Z,4.20
2017-12-21T12:50:37.766Z,2.80
2017-12-21T12:53:06.041Z,2.47
2017-12-21T12:55:34.370Z,2.55
2017-12-21T12:58:01.891Z,2.58
2017-12-21T13:00:30.170Z,2.47
2017-12-21T13:02:58.444Z,3.83
2017-12-21T13:05:26.746Z,4.75
2017-12-21T13:07:54.251Z,2.12
2017-12-21T13:10:21.772Z,2.42
2017-12-21T13:12:49.270Z,2.95
2017-12-21T13:15:16.791Z,6.47
2017-12-21T13:17:44.294Z,4.03
2017-12-21T13:20:11.802Z,4.18
2017-12-21T13:22:39.306Z,2.70
2017-12-21T13:25:06.861Z,2.55
2017-12-21T13:27:34.364Z,3.37
2017-12-21T13:30:01.862Z,3.40
2017-12-21T13:32:29.379Z,2.87
2017-12-21T13:34:56.869Z,4.30
2017-12-21T13:37:24.382Z,3.00
2017-12-21T13:39:52.641Z,3.92
2017-12-21T13:42:20.931Z,4.15
2017-12-21T13:44:48.438Z,4.65
2017-12-21T13:47:16.408Z,3.00
2017-12-21T13:49:43.905Z,8.40
2017-12-21T13:52:11.470Z,5.03
2017-12-21T13:54:38.982Z,5.05
2017-12-21T13:57:06.498Z,3.58
2017-12-21T13:59:34.762Z,4.95
2017-12-21T14:02:02.286Z,2.78
2017-12-21T14:04:29.782Z,4.70
2017-12-21T14:06:57.280Z,5.03
2017-12-21T14:09:24.796Z,4.40
2017-12-21T14:11:52.302Z,6.07
2017-12-21T14:14:19.829Z,4.18
2017-12-21T14:16:48.092Z,4.12
2017-12-21T14:19:15.598Z,4.03
2017-12-21T14:21:43.094Z,5.72
2017-12-21T14:24:10.618Z,7.35
2017-12-21T14:26:38.110Z,5.53
2017-12-21T14:29:05.629Z,7.18
2017-12-21T14:31:33.154Z,4.87
2017-12-21T14:34:00.663Z,6.57
2017-12-21T14:36:28.159Z,5.80
2017-12-21T14:38:55.666Z,8.30
2017-12-21T14:41:23.162Z,6.82
2017-12-21T14:43:51.443Z,6.00
2017-12-21T14:46:18.944Z,8.05
2017-12-21T14:48:46.467Z,6.78
2017-12-21T14:51:13.958Z,5.35
2017-12-21T14:53:42.247Z,10.05
2017-12-21T14:56:09.751Z,9.48
2017-12-21T14:58:37.287Z,7.87
2017-12-21T15:01:04.798Z,10.13
2017-12-21T15:03:33.084Z,12.57
2017-12-21T15:06:01.351Z,8.40
2017-12-21T15:08:29.620Z,9.30
2017-12-21T15:10:57.134Z,8.32
2017-12-21T15:13:24.635Z,10.18
2017-12-21T15:15:52.163Z,11.23
2017-12-21T15:18:19.662Z,6.90
2017-12-21T15:20:47.942Z,5.22
2017-12-21T15:23:15.443Z,9.00
2017-12-21T15:25:42.964Z,8.80
2017-12-21T15:28:11.217Z,9.10
2017-12-21T15:30:38.727Z,6.75
2017-12-21T15:33:06.222Z,6.72
2017-12-21T15:35:33.743Z,8.85
2017-12-21T15:38:01.238Z,7.55
2017-12-21T15:40:28.754Z,9.80
2017-12-21T15:42:56.250Z,9.93
2017-12-21T15:45:23.749Z,9.15
2017-12-21T15:47:52.005Z,6.20
2017-12-21T15:50:19.518Z,6.55
2017-12-21T15:52:47.011Z,6.90
2017-12-21T15:55:14.570Z,9.57
2017-12-21T15:57:42.070Z,8.60
2017-12-21T16:00:10.331Z,8.77
2017-12-21T16:02:37.846Z,7.05
2017-12-21T16:05:05.346Z,5.32
2017-12-21T16:07:32.869Z,7.60
2017-12-21T16:10:00.370Z,7.03
2017-12-21T16:12:28.647Z,7.47
2017-12-21T16:14:56.138Z,8.27
2017-12-21T16:17:23.650Z,10.38
2017-12-21T16:19:51.143Z,8.25
2017-12-21T16:22:18.651Z,9.30
2017-12-21T16:24:46.145Z,9.65
2017-12-21T16:27:13.678Z,6.32
2017-12-21T16:29:41.178Z,10.20
2017-12-21T16:32:08.690Z,8.93
2017-12-21T16:34:36.178Z,7.68
2017-12-21T16:37:04.453Z,7.45
2017-12-21T16:39:31.952Z,6.95
2017-12-21T16:41:59.472Z,8.18
2017-12-21T16:44:27.738Z,9.70
2017-12-21T16:46:55.258Z,9.77
2017-12-21T16:49:22.752Z,6.85
2017-12-21T16:51:50.252Z,7.72
2017-12-21T16:54:17.774Z,7.37
2017-12-21T16:56:45.275Z,11.80
2017-12-21T16:59:12.785Z,8.50
2017-12-21T17:01:40.278Z,7.20
2017-12-21T17:04:07.798Z,9.27
2017-12-21T17:06:35.306Z,8.68
2017-12-21T17:09:02.819Z,6.90
2017-12-21T17:11:30.319Z,8.20
2017-12-21T17:13:57.833Z,9.50
2017-12-21T17:16:25.371Z,13.23
2017-12-21T17:18:53.018Z,9.77
2017-12-21T17:21:20.530Z,8.25
2017-12-21T17:23:48.079Z,11.95
2017-12-21T17:26:15.579Z,12.98
2017-12-21T17:28:43.092Z,11.63
2017-12-21T17:31:10.606Z,9.02
2017-12-21T17:33:38.118Z,7.12
2017-12-21T17:36:05.656Z,6.07
2017-12-21T17:38:39.148Z,7.90
2017-12-21T17:41:06.671Z,6.90
2017-12-21T17:43:34.194Z,8.30
2017-12-21T17:46:01.690Z,9.40
2017-12-21T17:48:29.228Z,9.23
2017-12-21T17:50:57.556Z,7.00
2017-12-21T17:53:25.091Z,8.70
2017-12-21T17:55:52.639Z,7.50
2017-12-21T17:58:20.189Z,8.43
2017-12-21T18:00:48.590Z,7.68
2017-12-21T18:03:16.107Z,10.00
2017-12-21T18:05:43.634Z,8.18
2017-12-21T18:08:11.142Z,8.75
2017-12-21T18:10:38.651Z,7.85
2017-12-21T18:13:06.189Z,7.55
2017-12-21T18:15:33.873Z,8.60
2017-12-21T18:18:01.384Z,7.03
2017-12-21T18:20:28.900Z,8.93
2017-12-21T18:22:56.410Z,9.65
2017-12-21T18:25:24.728Z,8.15
2017-12-21T18:27:52.222Z,9.10
2017-12-21T18:30:19.776Z,9.55
2017-12-21T18:32:47.278Z,10.02
2017-12-21T18:35:14.798Z,9.07
2017-12-21T18:37:42.357Z,13.77
2017-12-21T18:40:09.917Z,10.18
2017-12-21T18:42:38.381Z,11.27
2017-12-21T18:45:05.883Z,10.48
2017-12-21T18:47:34.191Z,10.15
2017-12-21T18:50:01.716Z,11.65
2017-12-21T18:52:30.027Z,13.43
2017-12-21T18:54:57.583Z,13.10
2017-12-21T18:57:25.149Z,13.27
2017-12-21T18:59:52.690Z,11.60
2017-12-21T19:02:21.008Z,15.10
2017-12-21T19:04:48.535Z,13.77
2017-12-21T19:07:16.130Z,13.45
2017-12-21T19:09:43.671Z,15.95
2017-12-21T19:12:11.281Z,12.80
2017-12-21T19:14:38.815Z,12.48
2017-12-21T19:17:06.386Z,14.55
2017-12-21T19:19:33.917Z,16.77
2017-12-21T19:22:01.448Z,15.55
2017-12-21T19:24:28.998Z,14.98
2017-12-21T19:26:57.282Z,14.98
2017-12-21T19:29:25.546Z,15.60
2017-12-21T19:31:53.887Z,15.98
2017-12-21T19:34:21.384Z,23.40
2017-12-21T19:36:49.709Z,49.58
2017-12-21T19:39:17.289Z,28.70
2017-12-21T19:41:44.843Z,22.40
2017-12-21T19:44:12.362Z,20.08
2017-12-21T19:46:39.913Z,17.50
2017-12-21T19:49:08.275Z,18.92
2017-12-21T19:51:36.592Z,20.08
2017-12-21T19:54:04.181Z,17.65
2017-12-21T19:56:31.733Z,18.25
2017-12-21T20:01:33.121Z,20.95
2017-12-21T20:04:00.694Z,19.02
2017-12-21T20:06:28.248Z,20.15
2017-12-21T20:08:56.046Z,19.42
2017-12-21T20:11:23.589Z,17.15
2017-12-21T20:13:51.116Z,18.08
2017-12-21T20:16:18.673Z,21.65
2017-12-21T20:18:46.309Z,17.98
2017-12-21T20:21:13.964Z,20.12
2017-12-21T20:23:41.627Z,17.35
2017-12-21T20:26:10.974Z,19.27
2017-12-21T20:28:38.518Z,17.58
2017-12-21T20:31:06.201Z,17.00
2017-12-21T20:33:33.768Z,15.23
2017-12-21T20:36:01.382Z,16.65
2017-12-21T20:38:28.986Z,21.23
2017-12-21T20:40:56.575Z,16.37
2017-12-21T20:43:24.867Z,16.98
2017-12-21T20:45:52.469Z,20.95
2017-12-21T20:48:20.002Z,18.67
2017-12-21T20:50:47.594Z,17.20
2017-12-21T20:53:15.167Z,18.73
2017-12-21T20:55:42.771Z,16.00
2017-12-21T20:58:10.330Z,16.58
2017-12-21T21:00:38.730Z,17.15
2017-12-21T21:03:06.350Z,17.80
2017-12-21T21:05:34.005Z,18.10
2017-12-21T21:08:02.387Z,17.87
2017-12-21T21:10:29.978Z,16.62
2017-12-21T21:12:57.549Z,19.98
2017-12-21T21:15:25.120Z,18.42
2017-12-21T21:17:52.690Z,16.50
2017-12-21T21:20:20.279Z,19.20
2017-12-21T21:22:47.808Z,17.60
2017-12-21T21:25:15.386Z,20.40
2017-12-21T21:27:42.977Z,24.30
2017-12-21T21:30:11.256Z,21.20
2017-12-21T21:32:39.592Z,20.00
2017-12-21T21:35:07.174Z,17.60
2017-12-21T21:37:34.703Z,16.85
2017-12-21T21:40:02.259Z,18.23
2017-12-21T21:42:29.816Z,17.02
2017-12-21T21:44:57.403Z,19.10
2017-12-21T21:47:24.990Z,16.92
2017-12-21T21:49:53.322Z,16.87
2017-12-21T21:52:20.905Z,17.30
2017-12-21T21:54:48.486Z,16.23
2017-12-21T21:57:16.493Z,14.52
2017-12-21T21:59:44.050Z,16.33
2017-12-21T22:02:11.592Z,13.45
2017-12-21T22:04:39.910Z,15.48
2017-12-21T22:07:07.480Z,14.75
2017-12-21T22:09:35.033Z,16.20
2017-12-21T22:12:02.602Z,14.65
2017-12-21T22:14:30.934Z,16.08
2017-12-21T22:16:58.516Z,16.23
2017-12-21T22:19:26.055Z,13.80
2017-12-21T22:21:54.375Z,18.83
2017-12-21T22:24:21.936Z,15.55
2017-12-21T22:26:49.478Z,11.82
2017-12-21T22:29:17.041Z,13.35
2017-12-21T22:31:44.530Z,13.80
2017-12-21T22:34:12.094Z,13.25
2017-12-21T22:36:39.650Z,14.57
2017-12-21T22:39:07.210Z,14.38
2017-12-21T22:41:34.758Z,12.55
2017-12-21T22:44:02.274Z,11.68
2017-12-21T22:46:29.831Z,12.15
2017-12-21T22:48:57.389Z,12.32
2017-12-21T22:51:24.888Z,10.80
2017-12-21T22:53:52.448Z,13.35
2017-12-21T22:56:19.959Z,12.07
2017-12-21T22:58:48.289Z,12.00
2017-12-21T23:01:16.605Z,12.70
2017-12-21T23:03:44.219Z,11.12
2017-12-21T23:06:11.716Z,12.45
2017-12-21T23:08:39.270Z,11.05
2017-12-21T23:11:06.789Z,11.95
2017-12-21T23:13:34.347Z,14.02
2017-12-21T23:16:01.909Z,13.60
2017-12-21T23:18:29.444Z,12.25
2017-12-21T23:20:56.959Z,10.75
2017-12-21T23:23:24.499Z,11.82
2017-12-21T23:25:52.018Z,12.18
2017-12-21T23:28:20.290Z,12.23
2017-12-21T23:30:47.848Z,12.05
2017-12-21T23:33:15.394Z,9.98
2017-12-21T23:35:42.988Z,9.90
2017-12-21T23:38:10.497Z,10.95
2017-12-21T23:40:38.044Z,12.77
2017-12-21T23:43:05.600Z,14.18
2017-12-21T23:45:33.108Z,10.57
2017-12-21T23:48:01.383Z,9.82
2017-12-21T23:50:29.645Z,10.15
2017-12-21T23:52:57.206Z,9.43
2017-12-21T23:55:24.709Z,10.77
2017-12-21T23:57:52.269Z,10.35
